createdAt,value
2022-09-20T00:04:40.243Z,10.44
2022-09-20T00:09:41.316Z,10.44
2022-09-20T00:14:42.452Z,10.44
2022-09-20T00:19:43.449Z,10.40
2022-09-20T00:24:48.864Z,10.35
2022-09-20T00:29:50.313Z,10.32
2022-09-20T00:35:09.732Z,10.24
2022-09-20T00:40:17.209Z,10.17
2022-09-20T00:45:22.860Z,10.09
2022-09-20T00:50:41.656Z,10.07
2022-09-20T00:55:48.129Z,10.08
2022-09-20T01:00:54.057Z,10.10
2022-09-20T01:05:55.429Z,10.13
2022-09-20T01:10:56.831Z,10.13
2022-09-20T01:15:59.739Z,10.10
2022-09-20T01:21:02.851Z,10.04
2022-09-20T01:26:25.967Z,10.01
2022-09-20T01:31:40.164Z,10.03
2022-09-20T01:37:03.278Z,10.05
2022-09-20T01:42:07.463Z,10.07
2022-09-20T01:47:24.134Z,10.08
2022-09-20T01:52:34.507Z,10.06
2022-09-20T01:57:57.521Z,10.06
2022-09-20T02:03:07.828Z,10.09
2022-09-20T02:08:27.477Z,10.09
2022-09-20T02:13:44.836Z,10.07
2022-09-20T02:19:20.259Z,10.05
2022-09-20T02:25:06.650Z,10.05
2022-09-20T02:30:32.885Z,10.08
2022-09-20T02:36:03.767Z,10.08
2022-09-20T02:41:26.576Z,10.07
2022-09-20T02:46:49.752Z,10.07
2022-09-20T02:52:03.800Z,10.10
2022-09-20T02:57:50.201Z,10.10
2022-09-20T03:03:29.150Z,10.09
2022-09-20T03:08:43.683Z,10.10
2022-09-20T03:14:02.166Z,10.09
2022-09-20T03:19:23.558Z,10.07
2022-09-20T03:24:31.052Z,10.02
2022-09-20T03:29:50.680Z,9.97
2022-09-20T03:34:57.875Z,9.91
2022-09-20T03:40:23.964Z,9.81
2022-09-20T03:45:40.484Z,9.77
2022-09-20T03:51:21.909Z,9.73
2022-09-20T03:56:28.696Z,9.69
2022-09-20T04:01:51.718Z,9.67
2022-09-20T04:07:22.901Z,9.63
2022-09-20T04:12:51.988Z,9.60
2022-09-20T04:18:22.943Z,9.56
2022-09-20T04:23:40.843Z,9.55
2022-09-20T04:28:54.481Z,9.54
2022-09-20T04:33:58.841Z,9.54
2022-09-20T04:39:30.305Z,9.55
2022-09-20T04:44:45.236Z,9.57
2022-09-20T04:50:07.017Z,9.64
2022-09-20T04:55:34.430Z,9.73
2022-09-20T05:01:17.966Z,9.81
2022-09-20T05:06:56.600Z,9.86
2022-09-20T05:12:33.679Z,9.85
2022-09-20T05:18:00.065Z,9.87
2022-09-20T05:23:20.332Z,9.92
2022-09-20T05:28:41.753Z,9.99
2022-09-20T05:34:15.759Z,10.11
2022-09-20T05:39:44.884Z,10.23
2022-09-20T05:45:04.781Z,10.28
2022-09-20T05:50:17.945Z,10.31
2022-09-20T05:55:31.194Z,10.43
2022-09-20T06:00:41.086Z,10.63
2022-09-20T06:06:04.115Z,10.72
2022-09-20T06:11:28.651Z,10.83
2022-09-20T06:16:48.683Z,11.05
2022-09-20T06:21:53.572Z,11.33
2022-09-20T06:26:58.915Z,11.64
2022-09-20T06:32:00.576Z,11.89
2022-09-20T06:37:32.017Z,11.99
2022-09-20T06:42:33.122Z,12.24
2022-09-20T06:47:38.112Z,12.47
2022-09-20T06:52:42.119Z,12.56
2022-09-20T06:57:43.623Z,12.51
2022-09-20T07:02:45.893Z,12.37
2022-09-20T07:07:47.426Z,12.36
2022-09-20T07:12:49.028Z,12.82
2022-09-20T07:17:51.191Z,13.95
2022-09-20T07:22:52.959Z,16.07
2022-09-20T07:27:54.166Z,18.19
2022-09-20T07:32:55.318Z,19.84
2022-09-20T07:37:57.642Z,19.91
2022-09-20T07:42:58.878Z,19.94
2022-09-20T07:48:04.443Z,19.87
2022-09-20T07:53:05.806Z,19.28
2022-09-20T07:58:06.944Z,18.94
2022-09-20T08:03:08.378Z,19.45
2022-09-20T08:08:10.929Z,19.50
2022-09-20T08:18:34.820Z,18.90
2022-09-20T08:23:37.997Z,18.93
2022-09-20T08:28:40.232Z,19.04
2022-09-20T08:33:42.486Z,19.54
2022-09-20T08:44:16.284Z,19.76
2022-09-20T08:49:36.930Z,19.70
2022-09-20T08:54:40.883Z,18.88
2022-09-20T08:59:42.890Z,18.13
2022-09-20T09:04:45.472Z,17.72
2022-09-20T09:09:49.716Z,17.91
2022-09-20T09:14:57.434Z,18.69
2022-09-20T09:20:23.595Z,19.24
2022-09-20T09:25:31.463Z,18.70
2022-09-20T09:30:35.505Z,18.28
2022-09-20T09:35:36.760Z,18.30
2022-09-20T09:40:50.058Z,18.51
2022-09-20T09:45:51.252Z,18.62
2022-09-20T09:51:14.589Z,18.39
2022-09-20T09:56:22.932Z,18.14
2022-09-20T10:02:00.107Z,18.22
2022-09-20T10:07:34.843Z,18.26
2022-09-20T10:12:44.965Z,17.83
2022-09-20T10:17:52.068Z,17.66
2022-09-20T10:23:51.562Z,17.71
2022-09-20T10:29:10.511Z,17.67
2022-09-20T10:34:21.110Z,17.69
2022-09-20T10:39:26.173Z,18.09
2022-09-20T10:44:43.218Z,18.13
2022-09-20T10:50:07.055Z,17.58
2022-09-20T10:55:21.305Z,17.31
2022-09-20T11:01:01.699Z,17.12
2022-09-20T11:06:21.579Z,16.81
2022-09-20T11:11:41.087Z,16.76
2022-09-20T11:16:50.342Z,16.80
2022-09-20T11:22:12.514Z,16.77
2022-09-20T11:27:24.493Z,16.95
2022-09-20T11:32:48.760Z,17.08
2022-09-20T11:38:18.034Z,17.01
2022-09-20T11:43:21.730Z,16.74
2022-09-20T11:48:35.743Z,16.53
2022-09-20T11:54:15.389Z,16.52
2022-09-20T11:59:39.659Z,16.69
2022-09-20T12:04:45.150Z,16.55
2022-09-20T12:09:55.832Z,16.19
2022-09-20T12:14:58.628Z,16.29
2022-09-20T12:20:00.364Z,16.32
2022-09-20T12:25:39.303Z,16.21
2022-09-20T12:30:40.477Z,15.93
2022-09-20T12:36:13.456Z,15.74
2022-09-20T12:41:27.612Z,15.67
2022-09-20T12:47:07.717Z,15.81
2022-09-20T12:52:49.000Z,16.11
2022-09-20T12:57:57.748Z,16.52
2022-09-20T13:03:01.711Z,16.87
2022-09-20T13:08:17.116Z,16.93
2022-09-20T13:13:31.271Z,16.89
2022-09-20T13:18:35.417Z,16.79
2022-09-20T13:23:49.229Z,16.65
2022-09-20T13:28:53.892Z,16.78
2022-09-20T13:34:12.028Z,17.04
2022-09-20T13:39:25.445Z,17.36
2022-09-20T13:44:27.133Z,17.42
2022-09-20T13:49:31.544Z,17.42
2022-09-20T13:54:33.118Z,17.44
2022-09-20T13:59:44.567Z,17.20
2022-09-20T14:04:46.331Z,16.67
2022-09-20T14:09:47.443Z,16.04
2022-09-20T14:14:50.475Z,15.57
2022-09-20T14:19:54.107Z,15.44
2022-09-20T14:24:58.709Z,15.33
2022-09-20T14:29:59.895Z,15.14
2022-09-20T14:35:04.308Z,15.11
2022-09-20T14:40:23.547Z,14.98
2022-09-20T14:45:33.788Z,14.86
2022-09-20T14:50:38.483Z,15.03
2022-09-20T14:56:01.074Z,15.40
2022-09-20T15:01:23.605Z,15.44
2022-09-20T15:06:25.059Z,15.25
2022-09-20T15:11:28.578Z,15.23
2022-09-20T15:16:30.149Z,15.14
2022-09-20T15:21:31.484Z,15.00
2022-09-20T15:26:33.728Z,15.00
2022-09-20T15:31:34.860Z,15.23
2022-09-20T15:36:36.021Z,15.51
2022-09-20T15:41:37.840Z,15.28
2022-09-20T15:46:40.918Z,14.91
2022-09-20T15:51:42.174Z,14.57
2022-09-20T15:56:43.580Z,14.26
2022-09-20T16:01:48.337Z,13.99
2022-09-20T16:06:49.950Z,13.81
2022-09-20T16:11:58.287Z,13.73
2022-09-20T16:16:59.482Z,13.65
2022-09-20T16:22:01.224Z,13.50
2022-09-20T16:27:06.779Z,13.35
2022-09-20T16:32:08.015Z,13.18
2022-09-20T16:37:15.062Z,13.00
2022-09-20T16:42:18.674Z,12.84
2022-09-20T16:47:22.569Z,12.68
2022-09-20T16:52:25.837Z,12.54
2022-09-20T16:57:27.220Z,12.41
2022-09-20T17:02:31.600Z,12.29
2022-09-20T17:07:32.914Z,12.18
2022-09-20T17:12:40.840Z,12.09
2022-09-20T17:17:42.015Z,11.99
2022-09-20T17:22:43.014Z,11.92
2022-09-20T17:27:44.865Z,11.82
2022-09-20T17:32:49.866Z,11.73
2022-09-20T17:37:51.085Z,11.65
2022-09-20T17:42:52.238Z,11.58
2022-09-20T17:47:54.917Z,11.53
2022-09-20T17:52:56.018Z,11.50
2022-09-20T17:57:57.199Z,11.45
2022-09-20T18:03:04.074Z,11.42
2022-09-20T18:08:06.067Z,11.38
2022-09-20T18:13:07.270Z,11.30
2022-09-20T18:18:09.572Z,11.24
2022-09-20T18:23:10.925Z,11.16
2022-09-20T18:28:13.369Z,11.14
2022-09-20T18:33:17.266Z,11.19
2022-09-20T18:38:18.387Z,11.23
2022-09-20T18:43:19.431Z,11.26
2022-09-20T18:48:23.998Z,11.28
2022-09-20T18:53:30.107Z,11.29
2022-09-20T18:58:31.558Z,11.23
2022-09-20T19:03:53.162Z,11.15
2022-09-20T19:09:21.948Z,11.06
2022-09-20T19:15:02.096Z,10.98
2022-09-20T19:20:12.941Z,10.92
2022-09-20T19:25:30.074Z,10.88
2022-09-20T19:30:32.483Z,10.87
2022-09-20T19:35:40.162Z,10.86
2022-09-20T19:40:58.863Z,10.93
2022-09-20T19:46:23.355Z,11.00
2022-09-20T19:51:25.420Z,11.09
2022-09-20T19:56:28.902Z,11.15
2022-09-20T20:01:30.586Z,11.17
2022-09-20T20:06:58.307Z,11.18
2022-09-20T20:12:14.043Z,11.15
2022-09-20T20:17:52.750Z,11.11
2022-09-20T20:23:15.846Z,11.10
2022-09-20T20:28:17.001Z,11.10
2022-09-20T20:33:18.705Z,11.11
2022-09-20T20:38:20.823Z,11.09
2022-09-20T20:43:22.038Z,11.07
2022-09-20T20:48:23.472Z,11.06
2022-09-20T20:53:24.605Z,11.03
2022-09-20T20:58:27.848Z,10.99
2022-09-20T21:03:29.901Z,10.93
2022-09-20T21:08:35.579Z,10.84
2022-09-20T21:13:38.701Z,10.77
2022-09-20T21:18:42.446Z,10.76
2022-09-20T21:23:45.749Z,10.79
2022-09-20T21:28:52.252Z,10.85
2022-09-20T21:33:53.432Z,10.89
2022-09-20T21:38:56.363Z,10.92
2022-09-20T21:43:59.604Z,10.89
2022-09-20T21:49:03.635Z,10.83
2022-09-20T21:54:05.146Z,10.78
2022-09-20T21:59:07.108Z,10.73
2022-09-20T22:04:10.895Z,10.72
2022-09-20T22:09:15.174Z,10.68
2022-09-20T22:14:18.679Z,10.62
2022-09-20T22:19:20.114Z,10.53
2022-09-20T22:24:21.142Z,10.48
2022-09-20T22:29:22.319Z,10.45
2022-09-20T22:34:24.588Z,10.41
2022-09-20T22:39:25.725Z,10.35
2022-09-20T22:44:26.748Z,10.32
2022-09-20T22:49:27.878Z,10.26
2022-09-20T22:54:28.976Z,10.20
2022-09-20T22:59:30.251Z,10.18
2022-09-20T23:04:31.315Z,10.13
2022-09-20T23:09:32.470Z,10.10
2022-09-20T23:14:33.522Z,10.08
2022-09-20T23:19:34.735Z,10.07
2022-09-20T23:24:35.917Z,10.08
2022-09-20T23:29:37.248Z,10.08
2022-09-20T23:34:38.246Z,10.05
2022-09-20T23:39:40.793Z,10.00
2022-09-20T23:44:42.061Z,9.95
2022-09-20T23:49:43.202Z,9.91
2022-09-20T23:54:44.229Z,9.90
2022-09-20T23:59:45.319Z,9.89
